sensor_id;sensor_type;location;lat;lon;timestamp;temperature;humidity
1602;DHT22;794;48.592;9.634;2023-09-19T00:00:19;16.00;1.00
1602;DHT22;794;48.592;9.634;2023-09-19T00:02:52;16.20;1.00
1602;DHT22;794;48.592;9.634;2023-09-19T00:05:22;16.20;1.00
1602;DHT22;794;48.592;9.634;2023-09-19T00:07:53;16.10;1.00
1602;DHT22;794;48.592;9.634;2023-09-19T00:10:20;16.00;1.00
1602;DHT22;794;48.592;9.634;2023-09-19T00:12:51;16.10;1.00
1602;DHT22;794;48.592;9.634;2023-09-19T00:15:18;16.10;1.00
1602;DHT22;794;48.592;9.634;2023-09-19T00:17:45;16.00;1.00
1602;DHT22;794;48.592;9.634;2023-09-19T00:20:13;16.00;1.00
1602;DHT22;794;48.592;9.634;2023-09-19T00:22:43;16.00;1.00
1602;DHT22;794;48.592;9.634;2023-09-19T00:25:11;15.90;1.00
1602;DHT22;794;48.592;9.634;2023-09-19T00:27:41;16.00;1.00
1602;DHT22;794;48.592;9.634;2023-09-19T00:30:11;15.90;1.00
1602;DHT22;794;48.592;9.634;2023-09-19T00:32:41;15.90;1.00
1602;DHT22;794;48.592;9.634;2023-09-19T00:35:11;15.60;1.00
1602;DHT22;794;48.592;9.634;2023-09-19T00:37:42;14.80;1.00
1602;DHT22;794;48.592;9.634;2023-09-19T00:40:11;15.70;1.00
1602;DHT22;794;48.592;9.634;2023-09-19T00:42:39;15.60;1.00
1602;DHT22;794;48.592;9.634;2023-09-19T00:45:07;15.70;1.00
1602;DHT22;794;48.592;9.634;2023-09-19T00:47:42;15.60;1.00
1602;DHT22;794;48.592;9.634;2023-09-19T00:50:13;15.60;1.00
1602;DHT22;794;48.592;9.634;2023-09-19T00:52:43;15.50;1.00
1602;DHT22;794;48.592;9.634;2023-09-19T00:55:14;15.50;1.00
1602;DHT22;794;48.592;9.634;2023-09-19T00:57:41;15.60;1.00
1602;DHT22;794;48.592;9.634;2023-09-19T01:00:10;15.50;1.00
1602;DHT22;794;48.592;9.634;2023-09-19T01:02:42;15.50;1.00
1602;DHT22;794;48.592;9.634;2023-09-19T01:05:10;15.40;1.00
1602;DHT22;794;48.592;9.634;2023-09-19T01:07:38;15.40;1.00
1602;DHT22;794;48.592;9.634;2023-09-19T01:10:07;15.50;1.00
1602;DHT22;794;48.592;9.634;2023-09-19T01:12:46;15.40;1.00
1602;DHT22;794;48.592;9.634;2023-09-19T01:15:32;15.40;1.00
1602;DHT22;794;48.592;9.634;2023-09-19T01:18:13;15.40;1.00
1602;DHT22;794;48.592;9.634;2023-09-19T01:20:49;15.30;1.00
1602;DHT22;794;48.592;9.634;2023-09-19T01:23:23;15.40;1.00
1602;DHT22;794;48.592;9.634;2023-09-19T01:26:11;15.20;1.00
1602;DHT22;794;48.592;9.634;2023-09-19T01:28:53;15.50;1.00
1602;DHT22;794;48.592;9.634;2023-09-19T01:31:25;15.50;1.00
1602;DHT22;794;48.592;9.634;2023-09-19T01:33:56;15.50;1.00
1602;DHT22;794;48.592;9.634;2023-09-19T01:36:25;15.50;1.00
1602;DHT22;794;48.592;9.634;2023-09-19T01:38:53;15.50;1.00
1602;DHT22;794;48.592;9.634;2023-09-19T01:41:26;15.50;1.00
1602;DHT22;794;48.592;9.634;2023-09-19T01:43:56;15.50;1.00
1602;DHT22;794;48.592;9.634;2023-09-19T01:46:34;15.50;1.00
1602;DHT22;794;48.592;9.634;2023-09-19T01:49:06;15.50;1.00
1602;DHT22;794;48.592;9.634;2023-09-19T01:51:56;15.50;1.00
1602;DHT22;794;48.592;9.634;2023-09-19T01:54:27;15.50;1.00
1602;DHT22;794;48.592;9.634;2023-09-19T01:57:01;15.50;1.00
1602;DHT22;794;48.592;9.634;2023-09-19T01:59:38;15.50;1.00
1602;DHT22;794;48.592;9.634;2023-09-19T02:02:10;15.50;1.00
1602;DHT22;794;48.592;9.634;2023-09-19T02:04:38;15.50;1.00
1602;DHT22;794;48.592;9.634;2023-09-19T02:07:05;15.50;1.00
1602;DHT22;794;48.592;9.634;2023-09-19T02:09:34;15.50;1.00
1602;DHT22;794;48.592;9.634;2023-09-19T02:12:04;15.50;1.00
1602;DHT22;794;48.592;9.634;2023-09-19T02:14:31;15.50;1.00
1602;DHT22;794;48.592;9.634;2023-09-19T02:17:00;15.60;1.00
1602;DHT22;794;48.592;9.634;2023-09-19T02:19:29;15.60;1.00
1602;DHT22;794;48.592;9.634;2023-09-19T02:21:57;15.60;1.00
1602;DHT22;794;48.592;9.634;2023-09-19T02:24:27;15.60;1.00
1602;DHT22;794;48.592;9.634;2023-09-19T02:26:53;15.60;1.00
1602;DHT22;794;48.592;9.634;2023-09-19T02:29:23;16.50;1.00
1602;DHT22;794;48.592;9.634;2023-09-19T02:32:05;15.60;1.00
1602;DHT22;794;48.592;9.634;2023-09-19T02:34:44;15.70;1.00
1602;DHT22;794;48.592;9.634;2023-09-19T02:37:26;15.60;1.00
1602;DHT22;794;48.592;9.634;2023-09-19T02:39:53;15.80;1.00
1602;DHT22;794;48.592;9.634;2023-09-19T02:42:20;15.70;1.00
1602;DHT22;794;48.592;9.634;2023-09-19T02:44:47;15.70;1.00
1602;DHT22;794;48.592;9.634;2023-09-19T02:47:16;15.70;1.00
1602;DHT22;794;48.592;9.634;2023-09-19T02:49:44;15.70;1.00
1602;DHT22;794;48.592;9.634;2023-09-19T02:52:11;15.70;1.00
1602;DHT22;794;48.592;9.634;2023-09-19T02:54:40;15.80;1.00
1602;DHT22;794;48.592;9.634;2023-09-19T02:57:11;15.80;1.00
1602;DHT22;794;48.592;9.634;2023-09-19T02:59:39;15.70;1.00
1602;DHT22;794;48.592;9.634;2023-09-19T03:02:08;15.70;1.00
1602;DHT22;794;48.592;9.634;2023-09-19T03:04:35;15.70;1.00
1602;DHT22;794;48.592;9.634;2023-09-19T03:07:05;15.50;1.00
1602;DHT22;794;48.592;9.634;2023-09-19T03:09:32;15.40;1.00
1602;DHT22;794;48.592;9.634;2023-09-19T03:12:01;15.40;1.00
1602;DHT22;794;48.592;9.634;2023-09-19T03:14:33;15.40;1.00
1602;DHT22;794;48.592;9.634;2023-09-19T03:17:01;15.20;1.00
1602;DHT22;794;48.592;9.634;2023-09-19T03:19:30;15.20;1.00
1602;DHT22;794;48.592;9.634;2023-09-19T03:22:04;15.20;1.00
1602;DHT22;794;48.592;9.634;2023-09-19T03:24:36;13.70;1.00
1602;DHT22;794;48.592;9.634;2023-09-19T03:27:08;15.10;1.00
1602;DHT22;794;48.592;9.634;2023-09-19T03:29:35;16.10;1.00
1602;DHT22;794;48.592;9.634;2023-09-19T03:32:10;15.00;1.00
1602;DHT22;794;48.592;9.634;2023-09-19T03:34:38;15.00;1.00
1602;DHT22;794;48.592;9.634;2023-09-19T03:37:07;15.10;1.00
1602;DHT22;794;48.592;9.634;2023-09-19T03:39:36;15.10;1.00
1602;DHT22;794;48.592;9.634;2023-09-19T03:42:06;15.10;1.00
1602;DHT22;794;48.592;9.634;2023-09-19T03:44:36;14.60;1.00
1602;DHT22;794;48.592;9.634;2023-09-19T03:47:04;15.20;1.00
1602;DHT22;794;48.592;9.634;2023-09-19T03:49:32;15.30;1.00
1602;DHT22;794;48.592;9.634;2023-09-19T03:52:01;15.40;1.00
1602;DHT22;794;48.592;9.634;2023-09-19T03:54:31;15.50;1.00
1602;DHT22;794;48.592;9.634;2023-09-19T03:56:58;15.50;1.00
1602;DHT22;794;48.592;9.634;2023-09-19T03:59:29;15.60;1.00
1602;DHT22;794;48.592;9.634;2023-09-19T04:01:56;15.70;1.00
1602;DHT22;794;48.592;9.634;2023-09-19T04:04:26;15.60;1.00
1602;DHT22;794;48.592;9.634;2023-09-19T04:06:56;15.30;1.00
1602;DHT22;794;48.592;9.634;2023-09-19T04:09:25;15.70;1.00
1602;DHT22;794;48.592;9.634;2023-09-19T04:11:56;15.60;1.00
1602;DHT22;794;48.592;9.634;2023-09-19T04:14:25;15.70;1.00
1602;DHT22;794;48.592;9.634;2023-09-19T04:16:52;15.70;1.00
1602;DHT22;794;48.592;9.634;2023-09-19T04:19:21;15.80;1.00
1602;DHT22;794;48.592;9.634;2023-09-19T04:21:50;15.80;1.00
1602;DHT22;794;48.592;9.634;2023-09-19T04:24:17;15.70;1.00
1602;DHT22;794;48.592;9.634;2023-09-19T04:26:46;15.80;1.00
1602;DHT22;794;48.592;9.634;2023-09-19T04:29:15;15.80;1.00
1602;DHT22;794;48.592;9.634;2023-09-19T04:31:44;15.90;1.00
1602;DHT22;794;48.592;9.634;2023-09-19T04:34:11;15.90;1.00
1602;DHT22;794;48.592;9.634;2023-09-19T04:36:43;15.80;1.00
1602;DHT22;794;48.592;9.634;2023-09-19T04:39:10;15.90;1.00
1602;DHT22;794;48.592;9.634;2023-09-19T04:41:38;15.90;1.00
1602;DHT22;794;48.592;9.634;2023-09-19T04:44:07;15.90;1.00
1602;DHT22;794;48.592;9.634;2023-09-19T04:46:35;15.80;1.00
1602;DHT22;794;48.592;9.634;2023-09-19T04:49:02;15.80;1.00
1602;DHT22;794;48.592;9.634;2023-09-19T04:51:32;15.90;1.00
1602;DHT22;794;48.592;9.634;2023-09-19T04:54:00;15.90;1.00
1602;DHT22;794;48.592;9.634;2023-09-19T04:56:27;15.80;1.00
1602;DHT22;794;48.592;9.634;2023-09-19T04:58:57;15.70;1.00
1602;DHT22;794;48.592;9.634;2023-09-19T05:01:25;15.70;1.00
1602;DHT22;794;48.592;9.634;2023-09-19T05:03:57;15.60;1.00
1602;DHT22;794;48.592;9.634;2023-09-19T05:06:26;16.00;1.00
1602;DHT22;794;48.592;9.634;2023-09-19T05:08:53;15.50;1.00
1602;DHT22;794;48.592;9.634;2023-09-19T05:11:23;15.40;1.00
1602;DHT22;794;48.592;9.634;2023-09-19T05:13:50;15.10;1.00
1602;DHT22;794;48.592;9.634;2023-09-19T05:16:16;15.30;1.00
1602;DHT22;794;48.592;9.634;2023-09-19T05:18:43;15.30;1.00
1602;DHT22;794;48.592;9.634;2023-09-19T05:21:18;15.20;1.00
1602;DHT22;794;48.592;9.634;2023-09-19T05:23:51;15.10;1.00
1602;DHT22;794;48.592;9.634;2023-09-19T05:26:21;15.00;1.00
1602;DHT22;794;48.592;9.634;2023-09-19T05:28:48;15.00;1.00
1602;DHT22;794;48.592;9.634;2023-09-19T05:31:16;15.00;1.00
1602;DHT22;794;48.592;9.634;2023-09-19T05:33:43;15.10;1.00
1602;DHT22;794;48.592;9.634;2023-09-19T05:36:10;15.20;1.00
1602;DHT22;794;48.592;9.634;2023-09-19T05:38:41;15.40;1.00
1602;DHT22;794;48.592;9.634;2023-09-19T05:41:10;15.30;1.00
1602;DHT22;794;48.592;9.634;2023-09-19T05:43:41;15.70;1.00
1602;DHT22;794;48.592;9.634;2023-09-19T05:46:10;15.90;1.00
1602;DHT22;794;48.592;9.634;2023-09-19T05:48:37;16.10;1.00
1602;DHT22;794;48.592;9.634;2023-09-19T05:51:05;16.30;1.00
1602;DHT22;794;48.592;9.634;2023-09-19T05:53:32;16.50;1.00
1602;DHT22;794;48.592;9.634;2023-09-19T05:56:00;16.70;1.00
1602;DHT22;794;48.592;9.634;2023-09-19T05:58:30;16.90;1.00
1602;DHT22;794;48.592;9.634;2023-09-19T06:00:57;17.10;1.00
1602;DHT22;794;48.592;9.634;2023-09-19T06:03:26;17.20;1.00
1602;DHT22;794;48.592;9.634;2023-09-19T06:05:54;17.20;1.00
1602;DHT22;794;48.592;9.634;2023-09-19T06:08:23;17.30;1.00
1602;DHT22;794;48.592;9.634;2023-09-19T06:10:51;17.20;1.00
1602;DHT22;794;48.592;9.634;2023-09-19T06:13:20;17.20;1.00
1602;DHT22;794;48.592;9.634;2023-09-19T06:15:46;17.30;1.00
1602;DHT22;794;48.592;9.634;2023-09-19T06:18:15;17.20;1.00
1602;DHT22;794;48.592;9.634;2023-09-19T06:20:45;17.20;1.00
1602;DHT22;794;48.592;9.634;2023-09-19T06:23:12;17.20;1.00
1602;DHT22;794;48.592;9.634;2023-09-19T06:25:41;17.00;1.00
1602;DHT22;794;48.592;9.634;2023-09-19T06:28:10;17.10;1.00
1602;DHT22;794;48.592;9.634;2023-09-19T06:30:43;17.00;1.00
1602;DHT22;794;48.592;9.634;2023-09-19T06:33:10;17.10;1.00
1602;DHT22;794;48.592;9.634;2023-09-19T06:35:38;17.10;1.00
1602;DHT22;794;48.592;9.634;2023-09-19T06:38:10;17.00;1.00
1602;DHT22;794;48.592;9.634;2023-09-19T06:40:40;17.20;1.00
1602;DHT22;794;48.592;9.634;2023-09-19T06:43:10;17.30;1.00
1602;DHT22;794;48.592;9.634;2023-09-19T06:45:37;17.20;1.00
1602;DHT22;794;48.592;9.634;2023-09-19T06:48:06;17.10;1.00
1602;DHT22;794;48.592;9.634;2023-09-19T06:50:32;17.00;1.00
1602;DHT22;794;48.592;9.634;2023-09-19T06:53:00;16.70;1.00
1602;DHT22;794;48.592;9.634;2023-09-19T06:55:28;16.70;1.00
1602;DHT22;794;48.592;9.634;2023-09-19T06:57:57;16.90;1.00
1602;DHT22;794;48.592;9.634;2023-09-19T07:00:27;17.00;1.00
1602;DHT22;794;48.592;9.634;2023-09-19T07:02:58;17.00;1.00
1602;DHT22;794;48.592;9.634;2023-09-19T07:05:28;16.80;1.00
1602;DHT22;794;48.592;9.634;2023-09-19T07:07:55;16.70;1.00
1602;DHT22;794;48.592;9.634;2023-09-19T07:10:26;16.70;1.00
1602;DHT22;794;48.592;9.634;2023-09-19T07:12:55;16.70;1.00
1602;DHT22;794;48.592;9.634;2023-09-19T07:15:23;16.90;1.00
1602;DHT22;794;48.592;9.634;2023-09-19T07:17:53;17.00;1.00
1602;DHT22;794;48.592;9.634;2023-09-19T07:20:22;16.90;1.00
1602;DHT22;794;48.592;9.634;2023-09-19T07:22:53;16.80;1.00
1602;DHT22;794;48.592;9.634;2023-09-19T07:25:21;16.60;1.00
1602;DHT22;794;48.592;9.634;2023-09-19T07:27:48;16.50;1.00
1602;DHT22;794;48.592;9.634;2023-09-19T07:30:16;16.60;1.00
1602;DHT22;794;48.592;9.634;2023-09-19T07:32:47;16.60;1.00
1602;DHT22;794;48.592;9.634;2023-09-19T07:35:16;16.20;1.00
1602;DHT22;794;48.592;9.634;2023-09-19T07:37:45;16.70;1.00
1602;DHT22;794;48.592;9.634;2023-09-19T07:40:16;16.80;1.00
1602;DHT22;794;48.592;9.634;2023-09-19T07:42:43;16.80;1.00
1602;DHT22;794;48.592;9.634;2023-09-19T07:45:12;16.90;1.00
1602;DHT22;794;48.592;9.634;2023-09-19T07:47:46;17.10;1.00
1602;DHT22;794;48.592;9.634;2023-09-19T07:50:17;16.70;1.00
1602;DHT22;794;48.592;9.634;2023-09-19T07:52:45;17.40;1.00
1602;DHT22;794;48.592;9.634;2023-09-19T07:55:12;17.60;1.00
1602;DHT22;794;48.592;9.634;2023-09-19T07:57:47;18.00;1.00
1602;DHT22;794;48.592;9.634;2023-09-19T08:00:17;18.70;1.00
1602;DHT22;794;48.592;9.634;2023-09-19T08:02:46;19.30;1.00
1602;DHT22;794;48.592;9.634;2023-09-19T08:05:13;19.30;1.00
1602;DHT22;794;48.592;9.634;2023-09-19T08:07:43;19.00;1.00
1602;DHT22;794;48.592;9.634;2023-09-19T08:10:11;19.10;1.00
1602;DHT22;794;48.592;9.634;2023-09-19T08:12:39;19.40;1.00
1602;DHT22;794;48.592;9.634;2023-09-19T08:15:13;19.10;1.00
1602;DHT22;794;48.592;9.634;2023-09-19T08:17:42;20.20;1.00
1602;DHT22;794;48.592;9.634;2023-09-19T08:20:13;20.10;1.00
1602;DHT22;794;48.592;9.634;2023-09-19T08:22:43;20.80;1.00
1602;DHT22;794;48.592;9.634;2023-09-19T08:25:12;21.60;1.00
1602;DHT22;794;48.592;9.634;2023-09-19T08:27:42;22.70;1.00
1602;DHT22;794;48.592;9.634;2023-09-19T08:30:17;22.40;1.00
1602;DHT22;794;48.592;9.634;2023-09-19T08:35:16;24.90;1.00
1602;DHT22;794;48.592;9.634;2023-09-19T08:37:45;24.50;1.00
1602;DHT22;794;48.592;9.634;2023-09-19T08:40:11;24.30;1.00
1602;DHT22;794;48.592;9.634;2023-09-19T08:42:52;23.30;1.00
1602;DHT22;794;48.592;9.634;2023-09-19T08:45:22;23.20;1.00
1602;DHT22;794;48.592;9.634;2023-09-19T08:48:00;22.60;1.00
1602;DHT22;794;48.592;9.634;2023-09-19T08:50:31;21.90;1.00
1602;DHT22;794;48.592;9.634;2023-09-19T08:53:01;21.20;1.00
1602;DHT22;794;48.592;9.634;2023-09-19T08:55:28;20.80;1.00
1602;DHT22;794;48.592;9.634;2023-09-19T08:58:04;20.80;1.00
1602;DHT22;794;48.592;9.634;2023-09-19T09:00:37;19.10;1.00
1602;DHT22;794;48.592;9.634;2023-09-19T09:03:09;20.80;1.00
1602;DHT22;794;48.592;9.634;2023-09-19T09:05:37;20.90;1.00
1602;DHT22;794;48.592;9.634;2023-09-19T09:08:07;20.90;1.00
1602;DHT22;794;48.592;9.634;2023-09-19T09:10:35;20.90;1.00
1602;DHT22;794;48.592;9.634;2023-09-19T09:13:03;20.60;1.00
1602;DHT22;794;48.592;9.634;2023-09-19T09:15:37;20.60;1.00
1602;DHT22;794;48.592;9.634;2023-09-19T09:18:07;20.60;1.00
1602;DHT22;794;48.592;9.634;2023-09-19T09:20:37;20.80;1.00
1602;DHT22;794;48.592;9.634;2023-09-19T09:23:06;20.20;1.00
1602;DHT22;794;48.592;9.634;2023-09-19T09:25:51;20.20;1.00
1602;DHT22;794;48.592;9.634;2023-09-19T09:28:23;19.90;1.00
1602;DHT22;794;48.592;9.634;2023-09-19T09:30:52;20.20;1.00
1602;DHT22;794;48.592;9.634;2023-09-19T09:33:22;20.30;1.00
1602;DHT22;794;48.592;9.634;2023-09-19T09:35:52;20.60;1.00
1602;DHT22;794;48.592;9.634;2023-09-19T09:38:24;20.70;1.00
1602;DHT22;794;48.592;9.634;2023-09-19T09:40:58;20.80;1.00
1602;DHT22;794;48.592;9.634;2023-09-19T09:43:32;21.20;1.00
1602;DHT22;794;48.592;9.634;2023-09-19T09:46:23;21.40;1.00
1602;DHT22;794;48.592;9.634;2023-09-19T09:49:10;21.50;1.00
1602;DHT22;794;48.592;9.634;2023-09-19T09:51:58;21.50;1.00
1602;DHT22;794;48.592;9.634;2023-09-19T09:54:27;21.30;1.00
1602;DHT22;794;48.592;9.634;2023-09-19T09:57:05;21.30;1.00
1602;DHT22;794;48.592;9.634;2023-09-19T09:59:46;21.30;1.00
1602;DHT22;794;48.592;9.634;2023-09-19T10:02:16;21.40;1.00
1602;DHT22;794;48.592;9.634;2023-09-19T10:04:50;20.80;1.00
1602;DHT22;794;48.592;9.634;2023-09-19T10:07:36;21.10;1.00
1602;DHT22;794;48.592;9.634;2023-09-19T10:10:06;21.10;1.00
1602;DHT22;794;48.592;9.634;2023-09-19T10:12:44;21.40;1.00
1602;DHT22;794;48.592;9.634;2023-09-19T10:15:15;21.60;1.00
1602;DHT22;794;48.592;9.634;2023-09-19T10:17:47;21.40;1.00
1602;DHT22;794;48.592;9.634;2023-09-19T10:20:20;21.60;1.00
1602;DHT22;794;48.592;9.634;2023-09-19T10:23:05;21.80;1.00
1602;DHT22;794;48.592;9.634;2023-09-19T10:25:38;22.20;1.00
1602;DHT22;794;48.592;9.634;2023-09-19T10:28:07;22.60;1.00
1602;DHT22;794;48.592;9.634;2023-09-19T10:30:37;22.80;1.00
1602;DHT22;794;48.592;9.634;2023-09-19T10:33:11;22.70;1.00
1602;DHT22;794;48.592;9.634;2023-09-19T10:35:42;23.00;1.00
1602;DHT22;794;48.592;9.634;2023-09-19T10:38:11;24.20;1.00
1602;DHT22;794;48.592;9.634;2023-09-19T10:40:39;23.90;1.00
1602;DHT22;794;48.592;9.634;2023-09-19T10:43:12;23.30;1.00
1602;DHT22;794;48.592;9.634;2023-09-19T10:45:46;23.40;1.00
1602;DHT22;794;48.592;9.634;2023-09-19T10:48:16;22.90;1.00
1602;DHT22;794;48.592;9.634;2023-09-19T10:50:49;22.60;1.00
1602;DHT22;794;48.592;9.634;2023-09-19T10:53:18;22.10;1.00
1602;DHT22;794;48.592;9.634;2023-09-19T10:55:51;21.70;1.00
1602;DHT22;794;48.592;9.634;2023-09-19T10:58:40;21.40;1.00
1602;DHT22;794;48.592;9.634;2023-09-19T11:01:10;21.40;1.00
1602;DHT22;794;48.592;9.634;2023-09-19T11:03:42;21.20;1.00
1602;DHT22;794;48.592;9.634;2023-09-19T11:06:16;21.10;1.00
1602;DHT22;794;48.592;9.634;2023-09-19T11:09:05;20.80;1.00
1602;DHT22;794;48.592;9.634;2023-09-19T11:11:49;20.70;1.00
1602;DHT22;794;48.592;9.634;2023-09-19T11:14:42;20.40;1.00
1602;DHT22;794;48.592;9.634;2023-09-19T11:17:42;20.50;1.00
1602;DHT22;794;48.592;9.634;2023-09-19T11:20:31;20.80;1.00
1602;DHT22;794;48.592;9.634;2023-09-19T11:23:26;21.10;1.00
1602;DHT22;794;48.592;9.634;2023-09-19T11:25:53;20.90;1.00
1602;DHT22;794;48.592;9.634;2023-09-19T11:28:38;21.20;1.00
1602;DHT22;794;48.592;9.634;2023-09-19T11:31:42;21.50;1.00
1602;DHT22;794;48.592;9.634;2023-09-19T11:34:38;21.30;1.00
1602;DHT22;794;48.592;9.634;2023-09-19T11:40:12;21.30;1.00
1602;DHT22;794;48.592;9.634;2023-09-19T11:42:43;21.80;1.00
1602;DHT22;794;48.592;9.634;2023-09-19T11:48:24;21.60;1.00
1602;DHT22;794;48.592;9.634;2023-09-19T11:50:55;21.80;1.00
1602;DHT22;794;48.592;9.634;2023-09-19T11:53:33;21.90;1.00
1602;DHT22;794;48.592;9.634;2023-09-19T11:56:09;21.60;1.00
1602;DHT22;794;48.592;9.634;2023-09-19T11:58:37;21.60;1.00
1602;DHT22;794;48.592;9.634;2023-09-19T12:01:06;21.70;1.00
1602;DHT22;794;48.592;9.634;2023-09-19T12:03:47;21.80;1.00
1602;DHT22;794;48.592;9.634;2023-09-19T12:06:16;21.80;1.00
1602;DHT22;794;48.592;9.634;2023-09-19T12:08:44;21.60;1.00
1602;DHT22;794;48.592;9.634;2023-09-19T12:11:16;21.50;1.00
1602;DHT22;794;48.592;9.634;2023-09-19T12:13:46;21.70;1.00
1602;DHT22;794;48.592;9.634;2023-09-19T12:16:17;21.80;1.00
1602;DHT22;794;48.592;9.634;2023-09-19T12:18:48;22.10;1.00
1602;DHT22;794;48.592;9.634;2023-09-19T12:21:33;22.10;1.00
1602;DHT22;794;48.592;9.634;2023-09-19T12:24:11;22.00;1.00
1602;DHT22;794;48.592;9.634;2023-09-19T12:26:46;21.90;1.00
1602;DHT22;794;48.592;9.634;2023-09-19T12:29:18;21.90;1.00
1602;DHT22;794;48.592;9.634;2023-09-19T12:31:53;21.90;1.00
1602;DHT22;794;48.592;9.634;2023-09-19T12:34:25;22.00;1.00
1602;DHT22;794;48.592;9.634;2023-09-19T12:37:07;22.00;1.00
1602;DHT22;794;48.592;9.634;2023-09-19T12:39:47;21.60;1.00
1602;DHT22;794;48.592;9.634;2023-09-19T12:42:22;21.40;1.00
1602;DHT22;794;48.592;9.634;2023-09-19T12:44:50;20.00;1.00
1602;DHT22;794;48.592;9.634;2023-09-19T12:47:22;21.50;1.00
1602;DHT22;794;48.592;9.634;2023-09-19T12:50:12;21.50;1.00
1602;DHT22;794;48.592;9.634;2023-09-19T12:52:45;21.70;1.00
1602;DHT22;794;48.592;9.634;2023-09-19T12:55:23;22.20;1.00
1602;DHT22;794;48.592;9.634;2023-09-19T12:58:07;21.90;1.00
1602;DHT22;794;48.592;9.634;2023-09-19T13:00:36;21.60;1.00
1602;DHT22;794;48.592;9.634;2023-09-19T13:03:13;21.30;1.00
1602;DHT22;794;48.592;9.634;2023-09-19T13:05:51;21.10;1.00
1602;DHT22;794;48.592;9.634;2023-09-19T13:08:23;21.00;1.00
1602;DHT22;794;48.592;9.634;2023-09-19T13:11:05;20.90;1.00
1602;DHT22;794;48.592;9.634;2023-09-19T13:13:37;21.00;1.00
1602;DHT22;794;48.592;9.634;2023-09-19T13:16:06;21.10;1.00
1602;DHT22;794;48.592;9.634;2023-09-19T13:18:48;21.30;1.00
1602;DHT22;794;48.592;9.634;2023-09-19T13:21:27;21.30;1.00
1602;DHT22;794;48.592;9.634;2023-09-19T13:24:18;21.20;1.00
1602;DHT22;794;48.592;9.634;2023-09-19T13:26:51;21.30;1.00
1602;DHT22;794;48.592;9.634;2023-09-19T13:29:22;21.40;1.00
1602;DHT22;794;48.592;9.634;2023-09-19T13:31:50;21.50;1.00
1602;DHT22;794;48.592;9.634;2023-09-19T13:34:19;21.80;1.00
1602;DHT22;794;48.592;9.634;2023-09-19T13:36:52;21.40;1.00
1602;DHT22;794;48.592;9.634;2023-09-19T13:39:19;20.40;1.00
1602;DHT22;794;48.592;9.634;2023-09-19T13:41:51;21.20;1.00
1602;DHT22;794;48.592;9.634;2023-09-19T13:44:18;21.20;1.00
1602;DHT22;794;48.592;9.634;2023-09-19T13:46:46;21.50;1.00
1602;DHT22;794;48.592;9.634;2023-09-19T13:49:13;21.60;1.00
1602;DHT22;794;48.592;9.634;2023-09-19T13:51:41;21.50;1.00
1602;DHT22;794;48.592;9.634;2023-09-19T13:54:12;21.40;1.00
1602;DHT22;794;48.592;9.634;2023-09-19T13:56:43;21.30;1.00
1602;DHT22;794;48.592;9.634;2023-09-19T13:59:12;21.30;1.00
1602;DHT22;794;48.592;9.634;2023-09-19T14:01:39;21.30;1.00
1602;DHT22;794;48.592;9.634;2023-09-19T14:04:08;21.10;1.00
1602;DHT22;794;48.592;9.634;2023-09-19T14:06:37;21.30;1.00
1602;DHT22;794;48.592;9.634;2023-09-19T14:09:07;21.20;1.00
1602;DHT22;794;48.592;9.634;2023-09-19T14:11:36;21.30;1.00
1602;DHT22;794;48.592;9.634;2023-09-19T14:14:03;21.20;1.00
1602;DHT22;794;48.592;9.634;2023-09-19T14:16:32;21.20;1.00
1602;DHT22;794;48.592;9.634;2023-09-19T14:19:02;21.10;1.00
1602;DHT22;794;48.592;9.634;2023-09-19T14:21:30;21.10;1.00
1602;DHT22;794;48.592;9.634;2023-09-19T14:23:57;21.00;1.00
1602;DHT22;794;48.592;9.634;2023-09-19T14:26:27;21.10;1.00
1602;DHT22;794;48.592;9.634;2023-09-19T14:28:54;21.10;1.00
1602;DHT22;794;48.592;9.634;2023-09-19T14:31:21;21.00;1.00
1602;DHT22;794;48.592;9.634;2023-09-19T14:33:53;20.90;1.00
1602;DHT22;794;48.592;9.634;2023-09-19T14:36:21;20.80;1.00
1602;DHT22;794;48.592;9.634;2023-09-19T14:38:52;20.80;1.00
1602;DHT22;794;48.592;9.634;2023-09-19T14:41:20;20.80;1.00
1602;DHT22;794;48.592;9.634;2023-09-19T14:43:48;20.80;1.00
1602;DHT22;794;48.592;9.634;2023-09-19T14:46:15;20.80;1.00
1602;DHT22;794;48.592;9.634;2023-09-19T14:48:47;20.90;1.00
1602;DHT22;794;48.592;9.634;2023-09-19T14:51:14;20.10;1.00
1602;DHT22;794;48.592;9.634;2023-09-19T14:53:41;20.90;1.00
1602;DHT22;794;48.592;9.634;2023-09-19T14:56:10;21.20;1.00
1602;DHT22;794;48.592;9.634;2023-09-19T14:58:37;21.00;1.00
1602;DHT22;794;48.592;9.634;2023-09-19T15:01:06;20.90;1.00
1602;DHT22;794;48.592;9.634;2023-09-19T15:03:35;20.80;1.00
1602;DHT22;794;48.592;9.634;2023-09-19T15:06:04;20.90;1.00
1602;DHT22;794;48.592;9.634;2023-09-19T15:08:34;21.00;1.00
1602;DHT22;794;48.592;9.634;2023-09-19T15:11:06;21.00;1.00
1602;DHT22;794;48.592;9.634;2023-09-19T15:13:36;21.10;1.00
1602;DHT22;794;48.592;9.634;2023-09-19T15:16:07;20.90;1.00
1602;DHT22;794;48.592;9.634;2023-09-19T15:18:39;21.00;1.00
1602;DHT22;794;48.592;9.634;2023-09-19T15:21:08;21.20;1.00
1602;DHT22;794;48.592;9.634;2023-09-19T15:23:41;21.10;1.00
1602;DHT22;794;48.592;9.634;2023-09-19T15:26:11;20.90;1.00
1602;DHT22;794;48.592;9.634;2023-09-19T15:28:40;21.10;1.00
1602;DHT22;794;48.592;9.634;2023-09-19T15:31:09;21.20;1.00
1602;DHT22;794;48.592;9.634;2023-09-19T15:33:37;21.10;1.00
1602;DHT22;794;48.592;9.634;2023-09-19T15:36:05;21.10;1.00
1602;DHT22;794;48.592;9.634;2023-09-19T15:41:16;21.10;1.00
1602;DHT22;794;48.592;9.634;2023-09-19T15:43:45;21.10;1.00
1602;DHT22;794;48.592;9.634;2023-09-19T15:46:13;21.10;1.00
1602;DHT22;794;48.592;9.634;2023-09-19T15:48:42;20.90;1.00
1602;DHT22;794;48.592;9.634;2023-09-19T15:51:13;21.00;1.00
1602;DHT22;794;48.592;9.634;2023-09-19T15:53:46;21.10;1.00
1602;DHT22;794;48.592;9.634;2023-09-19T15:56:17;20.90;1.00
1602;DHT22;794;48.592;9.634;2023-09-19T15:58:46;20.90;1.00
1602;DHT22;794;48.592;9.634;2023-09-19T16:01:17;21.00;1.00
1602;DHT22;794;48.592;9.634;2023-09-19T16:03:46;21.10;1.00
1602;DHT22;794;48.592;9.634;2023-09-19T16:06:14;21.70;1.00
1602;DHT22;794;48.592;9.634;2023-09-19T16:08:42;22.30;1.00
1602;DHT22;794;48.592;9.634;2023-09-19T16:11:16;22.60;1.00
1602;DHT22;794;48.592;9.634;2023-09-19T16:13:48;22.80;1.00
1602;DHT22;794;48.592;9.634;2023-09-19T16:16:16;23.00;1.00
1602;DHT22;794;48.592;9.634;2023-09-19T16:18:45;23.10;1.00
1602;DHT22;794;48.592;9.634;2023-09-19T16:21:14;22.90;1.00
1602;DHT22;794;48.592;9.634;2023-09-19T16:23:44;22.40;1.00
1602;DHT22;794;48.592;9.634;2023-09-19T16:26:11;22.00;1.00
1602;DHT22;794;48.592;9.634;2023-09-19T16:28:40;22.20;1.00
1602;DHT22;794;48.592;9.634;2023-09-19T16:31:09;21.50;1.00
1602;DHT22;794;48.592;9.634;2023-09-19T16:33:40;21.10;1.00
1602;DHT22;794;48.592;9.634;2023-09-19T16:36:08;20.70;1.00
1602;DHT22;794;48.592;9.634;2023-09-19T16:38:37;20.30;1.00
1602;DHT22;794;48.592;9.634;2023-09-19T16:41:04;20.00;1.00
1602;DHT22;794;48.592;9.634;2023-09-19T16:43:32;19.80;1.00
1602;DHT22;794;48.592;9.634;2023-09-19T16:46:01;19.60;1.00
1602;DHT22;794;48.592;9.634;2023-09-19T16:48:31;19.20;1.00
1602;DHT22;794;48.592;9.634;2023-09-19T16:51:00;19.00;1.00
1602;DHT22;794;48.592;9.634;2023-09-19T16:53:32;17.00;1.00
1602;DHT22;794;48.592;9.634;2023-09-19T16:56:03;18.50;1.00
1602;DHT22;794;48.592;9.634;2023-09-19T16:58:31;18.30;1.00
1602;DHT22;794;48.592;9.634;2023-09-19T17:00:58;18.10;1.00
1602;DHT22;794;48.592;9.634;2023-09-19T17:03:25;17.90;1.00
1602;DHT22;794;48.592;9.634;2023-09-19T17:05:56;17.80;1.00
1602;DHT22;794;48.592;9.634;2023-09-19T17:08:24;17.60;1.00
1602;DHT22;794;48.592;9.634;2023-09-19T17:10:51;17.40;1.00